Time;durP1;ratioP1;P1;durP2;ratioP2;P2;SDS_P1;SDS_P2;PMS_P1;PMS_P2;Temp;Humidity;BMP_temperature;BMP_pressure;BME280_temperature;BME280_humidity;BME280_pressure;Samples;Min_cycle;Max_cycle;Signal;HPM_P1;HPM_P2
2022/07/10 00:04:41;;;;;;;;;;;18.40;99.90;;;17.55;81.12;96125.59;10467762;28;1999;-72
2022/07/10 00:09:44;;;;;;;;;;;18.40;99.90;;;17.35;82.67;96118.75;10467427;28;1825;-73
2022/07/10 00:14:47;;;;;;;;;;;18.30;99.90;;;17.28;82.24;96119.16;10463886;28;1848;-73
2022/07/10 00:19:51;;;;;;;;;;;18.20;99.90;;;17.03;86.17;96127.91;10470657;28;1845;-70
2022/07/10 00:24:54;;;;;;;;;;;18.20;99.90;;;16.47;94.56;96137.19;10467699;28;1918;-72
2022/07/10 00:29:58;;;;;;;;;;;17.80;99.90;;;16.24;97.87;96151.78;10467900;28;1794;-72
2022/07/10 00:35:02;;;;;;;;;;;17.40;99.90;;;15.93;100.00;96163.19;10461381;28;2189;-71
2022/07/10 00:40:05;;;;;;;;;;;17.20;99.90;;;15.47;100.00;96177.47;10466404;28;1910;-73
2022/07/10 00:45:08;;;;;;;;;;;16.70;99.90;;;15.11;100.00;96177.16;10471308;28;1914;-72
2022/07/10 00:50:12;;;;;;;;;;;16.20;99.90;;;14.92;100.00;96187.97;10478985;28;1880;-72
2022/07/10 00:55:16;;;;;;;;;;;16.00;99.90;;;14.89;100.00;96161.50;10473659;28;1923;-71
2022/07/10 01:00:19;;;;;;;;;;;15.90;99.90;;;14.89;100.00;96156.09;10479212;28;1973;-74
2022/07/10 01:05:21;;;;;;;;;;;15.90;99.90;;;14.77;100.00;96171.94;10476532;28;2253;-72
2022/07/10 01:10:25;;;;;;;;;;;15.80;99.90;;;14.57;100.00;96168.41;10477466;28;1824;-72
2022/07/10 01:15:28;;;;;;;;;;;15.60;99.90;;;14.45;100.00;96167.97;10478040;28;2046;-72
2022/07/10 01:20:32;;;;;;;;;;;15.50;99.90;;;14.27;100.00;96160.59;10480213;28;1939;-72
2022/07/10 01:25:43;;;;;;;;;;;15.40;99.90;;;14.31;100.00;96165.16;10478016;28;1974;-72
2022/07/10 01:30:55;;;;;;;;;;;15.30;99.90;;;14.29;100.00;96142.19;10473844;28;2032;-73
2022/07/10 01:35:59;;;;;;;;;;;15.20;99.90;;;14.31;100.00;96143.53;10477637;28;1929;-73
2022/07/10 01:41:02;;;;;;;;;;;15.20;99.90;;;14.28;100.00;96140.59;10468840;28;1991;-74
2022/07/10 01:46:06;;;;;;;;;;;15.20;99.90;;;14.29;100.00;96142.19;10470968;28;2028;-73
2022/07/10 01:51:09;;;;;;;;;;;15.30;99.90;;;14.39;100.00;96139.38;10473388;28;1946;-72
2022/07/10 01:56:13;;;;;;;;;;;15.30;99.90;;;14.43;100.00;96126.88;10469543;28;1969;-72
2022/07/10 02:01:16;;;;;;;;;;;15.30;99.90;;;14.46;100.00;96130.91;10476040;28;2033;-72
2022/07/10 02:06:18;;;;;;;;;;;15.40;99.90;;;14.46;100.00;96129.03;10472409;28;2155;-73
2022/07/10 02:11:22;;;;;;;;;;;15.40;99.90;;;14.52;100.00;96108.94;10474714;28;1938;-73
2022/07/10 02:16:25;;;;;;;;;;;15.40;99.90;;;14.53;100.00;96115.97;10482641;28;1966;-71
2022/07/10 02:21:29;;;;;;;;;;;15.50;99.90;;;14.56;100.00;96115.38;10515605;28;2057;-73
2022/07/10 02:26:32;;;;;;;;;;;15.50;99.90;;;14.61;100.00;96117.22;10474178;28;2058;-72
2022/07/10 02:31:40;;;;;;;;;;;15.50;99.90;;;14.53;100.00;96115.16;10465514;28;1808;-72
2022/07/10 02:36:43;;;;;;;;;;;15.50;99.90;;;14.47;100.00;96106.31;10471876;28;1808;-72
2022/07/10 02:41:46;;;;;;;;;;;15.50;99.90;;;14.39;100.00;96109.63;10472744;28;2024;-72
2022/07/10 02:46:49;;;;;;;;;;;15.50;99.90;;;14.34;100.00;96120.50;10482720;28;1991;-72
2022/07/10 02:51:53;;;;;;;;;;;15.40;99.90;;;14.27;100.00;96117.34;10474888;28;1934;-72
2022/07/10 02:56:56;;;;;;;;;;;15.30;99.90;;;14.22;100.00;96120.91;10469940;28;1864;-71
2022/07/10 03:01:59;;;;;;;;;;;15.30;99.90;;;14.16;100.00;96118.53;10470929;28;1956;-72
2022/07/10 03:07:02;;;;;;;;;;;15.20;99.90;;;14.16;100.00;96113.13;10471204;28;2062;-73
2022/07/10 03:12:05;;;;;;;;;;;15.20;99.90;;;14.17;100.00;96120.16;10467042;28;1852;-73
2022/07/10 03:17:07;;;;;;;;;;;15.10;99.90;;;14.18;100.00;96117.16;10480432;28;2273;-73
2022/07/10 03:22:10;;;;;;;;;;;15.20;99.90;;;14.09;100.00;96101.88;10474039;28;1971;-72
2022/07/10 03:27:13;;;;;;;;;;;15.10;99.90;;;14.06;100.00;96101.38;10475827;28;1828;-72
2022/07/10 03:32:16;;;;;;;;;;;15.10;99.90;;;14.00;100.00;96118.72;10472672;28;1508;-73
2022/07/10 03:37:19;;;;;;;;;;;15.10;99.90;;;13.96;100.00;96116.88;10468861;28;2360;-71
2022/07/10 03:42:22;;;;;;;;;;;15.00;99.90;;;13.94;100.00;96122.56;10470619;28;1906;-73
2022/07/10 03:47:26;;;;;;;;;;;15.00;99.90;;;13.96;100.00;96120.38;10467001;28;1824;-72
2022/07/10 03:52:28;;;;;;;;;;;15.00;99.90;;;14.02;100.00;96119.22;10470523;28;2021;-72
2022/07/10 04:02:52;;;;;;;;;;;15.00;99.90;;;14.26;100.00;96115.75;10468897;28;1994;-72
2022/07/10 04:07:56;;;;;;;;;;;15.10;99.90;;;14.36;100.00;96121.00;10471597;28;1463;-73
2022/07/10 04:12:59;;;;;;;;;;;15.20;99.90;;;14.48;100.00;96117.94;10467661;28;1611;-72
2022/07/10 04:18:03;;;;;;;;;;;15.30;99.90;;;14.74;100.00;96115.69;10471319;28;1780;-72
2022/07/10 04:23:06;;;;;;;;;;;15.40;99.90;;;14.81;100.00;96103.41;10479453;28;1995;-72
2022/07/10 04:28:09;;;;;;;;;;;15.60;99.90;;;14.85;100.00;96100.94;10478300;28;1827;-72
2022/07/10 04:33:12;;;;;;;;;;;15.60;99.90;;;15.00;100.00;96098.00;10476875;28;1840;-70
2022/07/10 04:38:16;;;;;;;;;;;15.70;99.90;;;15.10;100.00;96102.47;10478706;28;1789;-72
2022/07/10 04:43:19;;;;;;;;;;;15.80;99.90;;;15.14;100.00;96096.16;10473607;28;1914;-73
2022/07/10 04:48:22;;;;;;;;;;;15.90;99.90;;;15.20;100.00;96099.56;10477555;28;1839;-72
2022/07/10 04:53:26;;;;;;;;;;;16.00;99.90;;;15.11;100.00;96106.78;10475786;28;2061;-73
2022/07/10 04:58:29;;;;;;;;;;;15.90;99.90;;;14.88;100.00;96119.28;10496869;28;1841;-72
2022/07/10 05:03:32;;;;;;;;;;;15.80;99.90;;;14.82;100.00;96118.56;10477870;28;1920;-72
2022/07/10 05:08:35;;;;;;;;;;;15.70;99.90;;;14.78;100.00;96132.97;10478735;28;1779;-71
2022/07/10 05:13:39;;;;;;;;;;;15.60;99.90;;;14.80;100.00;96136.97;10477003;28;1773;-73
2022/07/10 05:18:42;;;;;;;;;;;15.70;99.90;;;14.71;100.00;96137.94;10478271;28;1804;-72
2022/07/10 05:23:46;;;;;;;;;;;15.50;99.90;;;14.88;100.00;96132.81;10474465;28;1930;-72
2022/07/10 05:28:49;;;;;;;;;;;15.60;99.90;;;14.90;100.00;96146.88;10475389;28;1887;-69
2022/07/10 05:33:52;;;;;;;;;;;15.70;99.90;;;14.93;100.00;96135.44;10475764;28;1825;-70
2022/07/10 05:38:55;;;;;;;;;;;15.70;99.90;;;14.83;100.00;96141.81;10480093;28;1872;-71
2022/07/10 05:43:58;;;;;;;;;;;15.70;99.90;;;14.84;100.00;96150.75;10473593;28;1914;-72
2022/07/10 05:49:01;;;;;;;;;;;15.70;99.90;;;14.77;100.00;96148.41;10477751;28;1900;-71
2022/07/10 05:54:04;;;;;;;;;;;15.70;99.90;;;14.75;100.00;96138.94;10476503;28;2019;-73
2022/07/10 05:59:07;;;;;;;;;;;15.60;99.90;;;15.36;100.00;96138.06;10473312;28;2168;-72
2022/07/10 06:04:10;;;;;;;;;;;15.80;99.90;;;15.78;100.00;96130.94;10476655;28;2181;-72
2022/07/10 06:09:13;;;;;;;;;;;16.20;99.90;;;16.01;100.00;96127.22;10477697;28;1796;-71
2022/07/10 06:14:16;;;;;;;;;;;16.50;99.90;;;16.02;100.00;96130.75;10476842;28;1917;-72
2022/07/10 06:19:19;;;;;;;;;;;16.60;99.90;;;15.88;100.00;96136.16;10490624;28;1884;-72
2022/07/10 06:24:22;;;;;;;;;;;16.60;99.90;;;15.55;100.00;96138.84;10487691;28;1956;-71
2022/07/10 06:29:25;;;;;;;;;;;16.40;99.90;;;15.56;100.00;96143.16;10497558;28;1865;-71
2022/07/10 06:34:29;;;;;;;;;;;16.40;99.90;;;15.59;100.00;96145.28;10471141;28;1840;-73
2022/07/10 06:39:33;;;;;;;;;;;16.40;99.90;;;15.75;100.00;96142.34;10468862;28;1748;-72
2022/07/10 06:44:36;;;;;;;;;;;16.50;99.90;;;15.81;100.00;96133.03;10469597;28;1987;-71
2022/07/10 06:49:39;;;;;;;;;;;16.50;99.90;;;15.67;100.00;96143.84;10476403;28;1824;-73
2022/07/10 06:54:42;;;;;;;;;;;16.50;99.90;;;15.37;100.00;96145.09;10464640;28;1804;-72
2022/07/10 06:59:44;;;;;;;;;;;16.30;99.90;;;15.58;100.00;96134.72;10463151;28;1923;-70
2022/07/10 07:04:47;;;;;;;;;;;16.20;99.90;;;15.54;100.00;96145.38;10464320;28;1991;-72
2022/07/10 07:09:50;;;;;;;;;;;16.20;99.90;;;15.33;100.00;96144.91;10464747;28;1934;-72
2022/07/10 07:14:53;;;;;;;;;;;16.20;99.90;;;15.21;100.00;96149.97;10462854;28;1856;-72
2022/07/10 07:25:16;;;;;;;;;;;16.10;99.90;;;15.75;100.00;96161.31;10476530;28;1914;-72
2022/07/10 07:30:20;;;;;;;;;;;16.20;99.90;;;15.54;100.00;96172.47;10465057;28;2183;-71
2022/07/10 07:35:23;;;;;;;;;;;16.30;99.90;;;15.89;100.00;96173.00;10469055;28;1709;-71
2022/07/10 07:40:29;;;;;;;;;;;17.20;99.90;;;16.68;99.67;96168.28;10464798;28;1800;-72
2022/07/10 07:45:32;;;;;;;;;;;16.90;99.90;;;16.74;97.96;96164.38;10463694;28;2001;-70
2022/07/10 07:50:35;;;;;;;;;;;17.40;99.90;;;17.78;93.12;96157.13;10476816;28;1808;-71
2022/07/10 07:55:39;;;;;;;;;;;17.70;99.90;;;18.46;85.71;96167.91;10471297;28;1840;-71
2022/07/10 08:00:42;;;;;;;;;;;18.60;99.90;;;18.04;84.49;96160.00;10464216;28;1783;-70
2022/07/10 08:05:45;;;;;;;;;;;18.90;99.90;;;17.04;88.62;96170.25;10472006;28;1918;-71
2022/07/10 08:10:49;;;;;;;;;;;18.30;99.90;;;17.17;91.50;96166.69;10470580;28;1816;-72
2022/07/10 08:15:53;;;;;;;;;;;17.90;99.90;;;18.75;79.93;96161.94;10470325;28;1716;-70
2022/07/10 08:21:01;;;;;;;;;;;18.70;99.90;;;18.52;77.87;96162.00;10470837;28;1849;-71
2022/07/10 08:26:06;;;;;;;;;;;19.10;99.90;;;18.36;75.09;96158.09;10475187;28;1987;-72
2022/07/10 08:31:09;;;;;;;;;;;19.00;99.90;;;18.45;72.88;96158.94;10472110;28;1907;-72
2022/07/10 08:36:17;;;;;;;;;;;19.10;99.90;;;18.64;73.92;96156.78;10470925;28;1848;-71
2022/07/10 08:41:40;;;;;;;;;;;19.20;99.90;;;17.85;76.84;96150.47;10474769;28;1807;-73
2022/07/10 08:46:43;;;;;;;;;;;18.90;99.90;;;18.53;74.39;96144.56;10468183;28;1963;-72
2022/07/10 08:51:46;;;;;;;;;;;18.80;99.90;;;18.79;70.01;96147.38;10483376;28;1820;-73
2022/07/10 08:56:49;;;;;;;;;;;19.40;99.90;;;18.82;70.55;96159.56;10469418;28;1888;-72
2022/07/10 09:01:53;;;;;;;;;;;19.90;99.90;;;17.35;77.69;96159.50;10469230;28;1858;-72
2022/07/10 09:06:57;;;;;;;;;;;18.80;99.90;;;18.51;73.31;96151.41;10471601;28;1974;-71
2022/07/10 09:12:00;;;;;;;;;;;18.80;99.90;;;19.59;66.35;96147.16;10474326;28;1921;-72
2022/07/10 09:17:03;;;;;;;;;;;19.80;99.90;;;18.33;68.86;96164.97;10475777;28;1804;-72
2022/07/10 09:22:06;;;;;;;;;;;19.60;99.90;;;18.83;63.71;96148.38;10475284;28;1871;-71
2022/07/10 09:27:09;;;;;;;;;;;19.40;99.90;;;19.46;61.41;96148.88;10476822;28;1975;-73
2022/07/10 09:32:13;;;;;;;;;;;19.80;99.90;;;18.45;62.96;96152.66;10476809;28;1864;-72
2022/07/10 09:37:17;;;;;;;;;;;19.40;99.90;;;19.11;57.65;96142.63;10476385;28;1875;-74
2022/07/10 09:42:20;;;;;;;;;;;19.60;99.90;;;19.11;58.41;96148.09;10474141;28;1959;-72
2022/07/10 09:47:23;;;;;;;;;;;19.80;99.90;;;19.42;56.93;96140.56;10475249;28;1918;-73
2022/07/10 09:52:27;;;;;;;;;;;20.00;99.90;;;19.54;57.46;96156.28;10488997;28;1840;-73
2022/07/10 09:57:29;;;;;;;;;;;20.30;99.90;;;19.62;57.05;96135.59;10477795;28;2004;-71
2022/07/10 10:02:33;;;;;;;;;;;20.10;99.90;;;20.56;51.06;96135.69;10477578;28;1855;-71
2022/07/10 10:07:37;;;;;;;;;;;20.90;99.90;;;21.04;49.93;96125.13;10486094;28;2328;-73
2022/07/10 10:12:40;;;;;;;;;;;21.30;99.90;;;20.94;48.18;96124.72;10463584;28;1952;-73
2022/07/10 10:17:43;;;;;;;;;;;21.50;99.90;;;19.92;50.29;96128.34;10477031;28;1835;-73
2022/07/10 10:22:46;;;;;;;;;;;21.20;99.90;;;19.56;52.93;96131.41;10475138;28;1899;-74
2022/07/10 10:27:48;;;;;;;;;;;20.60;99.90;;;19.74;51.04;96132.22;10468423;28;1906;-73
2022/07/10 10:32:52;;;;;;;;;;;20.30;99.90;;;18.96;52.70;96129.44;10502541;28;1793;-71
2022/07/10 10:37:54;;;;;;;;;;;20.00;99.90;;;20.04;49.84;96124.94;10487039;28;1815;-72
2022/07/10 10:42:58;;;;;;;;;;;20.30;99.90;;;21.64;46.18;96112.13;10468101;28;1812;-72
2022/07/10 10:48:01;;;;;;;;;;;21.50;99.90;;;20.92;47.57;96121.50;10474496;28;1913;-73
2022/07/10 10:53:26;;;;;;;;;;;22.80;99.90;;;20.91;44.99;96119.91;10469141;28;1970;-73
2022/07/10 10:58:29;;;;;;;;;;;22.60;99.90;;;21.59;42.88;96113.13;10476379;28;1788;-74
2022/07/10 11:03:32;;;;;;;;;;;23.10;99.90;;;21.90;42.77;96111.09;10473735;28;1868;-74
2022/07/10 11:08:35;;;;;;;;;;;23.60;99.90;;;20.20;46.66;96117.81;10474976;28;1996;-72
2022/07/10 11:13:38;;;;;;;;;;;22.10;99.90;;;19.79;47.72;96119.22;10467907;28;1840;-71
2022/07/10 11:18:42;;;;;;;;;;;21.00;99.90;;;20.76;45.04;96108.44;10471063;28;1938;-72
2022/07/10 11:23:47;;;;;;;;;;;22.00;99.90;;;20.16;45.86;96105.94;10467059;28;1781;-73
2022/07/10 11:28:56;;;;;;;;;;;21.50;99.90;;;20.62;44.26;96107.06;10463567;28;1981;-73
2022/07/10 11:33:59;;;;;;;;;;;21.50;99.90;;;20.72;43.49;96099.28;10467561;28;1939;-73
2022/07/10 11:39:02;;;;;;;;;;;21.70;99.90;;;19.71;47.65;96111.84;10477476;28;1917;-72
2022/07/10 11:44:05;;;;;;;;;;;21.20;99.90;;;19.00;50.54;96109.44;10485619;28;1853;-71
2022/07/10 11:49:08;;;;;;;;;;;20.40;99.90;;;20.10;48.30;96097.13;10475985;28;1953;-73
2022/07/10 11:54:12;;;;;;;;;;;20.60;99.90;;;21.02;44.42;96100.06;10459887;28;1796;-72
2022/07/10 11:59:15;;;;;;;;;;;21.40;99.90;;;20.82;45.20;96103.56;10476544;28;1958;-71
2022/07/10 12:04:19;;;;;;;;;;;21.60;99.90;;;21.16;43.58;96099.00;10473093;28;1914;-73
2022/07/10 12:09:22;;;;;;;;;;;21.90;99.90;;;21.95;41.96;96089.78;10478078;28;1736;-73
2022/07/10 12:14:26;;;;;;;;;;;22.40;99.90;;;22.06;42.77;96093.66;10477497;28;1853;-73
2022/07/10 12:19:30;;;;;;;;;;;22.60;99.90;;;21.64;41.90;96095.72;10484718;28;1930;-73
2022/07/10 12:24:34;;;;;;;;;;;22.60;99.90;;;21.69;42.37;96094.69;10477586;28;1964;-74
2022/07/10 12:29:37;;;;;;;;;;;22.30;99.90;;;22.41;40.88;96087.00;10473804;28;1828;-74
2022/07/10 12:34:42;;;;;;;;;;;22.80;99.90;;;21.97;40.84;96103.91;10475677;28;1813;-71
2022/07/10 12:39:45;;;;;;;;;;;23.00;99.90;;;21.14;42.69;96101.28;10475932;28;1764;-72
2022/07/10 12:44:48;;;;;;;;;;;22.10;99.90;;;20.84;42.49;96101.31;10477856;28;1987;-73
2022/07/10 12:49:51;;;;;;;;;;;21.70;99.90;;;20.61;42.67;96100.00;10483072;28;1817;-73
2022/07/10 12:54:54;;;;;;;;;;;21.60;99.90;;;21.58;41.27;96089.66;10480162;28;1816;-72
2022/07/10 12:59:57;;;;;;;;;;;21.90;99.90;;;21.50;41.12;96098.75;10480213;28;1867;-72
2022/07/10 13:05:01;;;;;;;;;;;22.20;99.90;;;20.97;41.99;96113.91;10473432;28;1977;-72
2022/07/10 13:10:05;;;;;;;;;;;21.90;99.90;;;20.59;43.08;96121.38;10473593;28;1874;-74
2022/07/10 13:15:07;;;;;;;;;;;21.60;99.90;;;20.50;43.22;96116.75;10480966;28;1813;-72
2022/07/10 13:20:11;;;;;;;;;;;21.50;99.90;;;21.53;41.78;96111.75;10473841;28;1804;-71
2022/07/10 13:25:14;;;;;;;;;;;22.00;99.90;;;20.52;42.29;96108.25;10474435;28;1971;-73
2022/07/10 13:30:17;;;;;;;;;;;21.90;99.90;;;20.57;42.30;96137.31;10478941;28;1986;-74
2022/07/10 13:35:20;;;;;;;;;;;21.40;99.90;;;20.44;41.84;96112.59;10470322;28;2853;-72
2022/07/10 13:40:23;;;;;;;;;;;21.40;99.90;;;20.45;41.74;96111.47;10473544;28;1816;-72
2022/07/10 13:45:29;;;;;;;;;;;21.40;99.90;;;20.79;41.01;96113.22;10470170;28;1918;-72
2022/07/10 13:50:33;;;;;;;;;;;21.70;99.90;;;21.05;40.35;96099.38;10477254;28;1887;-72
2022/07/10 13:55:36;;;;;;;;;;;21.90;99.90;;;21.10;39.61;96103.06;10467765;28;1887;-73
2022/07/10 14:00:39;;;;;;;;;;;22.10;99.90;;;20.89;39.32;96114.78;10470220;28;1876;-72
2022/07/10 14:05:42;;;;;;;;;;;22.20;99.90;;;20.68;40.03;96105.75;10473360;28;1988;-73
2022/07/10 14:10:46;;;;;;;;;;;21.90;99.90;;;20.32;40.90;96125.31;10468650;28;1853;-72
2022/07/10 14:15:49;;;;;;;;;;;21.50;99.90;;;20.50;40.00;96108.56;10479450;28;1864;-71
2022/07/10 14:21:03;;;;;;;;;;;21.50;99.90;;;20.71;39.55;96118.75;10474716;28;2200;-72
2022/07/10 14:26:06;;;;;;;;;;;22.10;99.90;;;20.30;40.19;96117.47;10469922;28;1960;-72
2022/07/10 14:31:09;;;;;;;;;;;21.40;99.90;;;20.00;40.90;96134.91;10469307;28;1856;-71
2022/07/10 14:36:13;;;;;;;;;;;21.40;99.90;;;20.43;41.17;96108.25;10491001;28;2092;-72
2022/07/10 14:41:16;;;;;;;;;;;21.20;99.90;;;19.96;40.98;96124.63;10489249;28;1875;-74
2022/07/10 14:46:19;;;;;;;;;;;21.20;99.90;;;20.41;39.85;96110.50;10468051;28;1946;-73
2022/07/10 14:51:23;;;;;;;;;;;21.30;99.90;;;20.77;38.99;96104.56;10473251;28;1990;-73
2022/07/10 14:56:28;;;;;;;;;;;21.70;99.90;;;20.89;38.33;96106.59;10471262;28;1875;-72
2022/07/10 15:01:32;;;;;;;;;;;21.90;99.90;;;20.55;38.75;96101.31;10472288;28;1859;-73
2022/07/10 15:06:35;;;;;;;;;;;21.60;99.90;;;20.35;38.43;96121.94;10466356;28;1913;-73
2022/07/10 15:11:39;;;;;;;;;;;21.80;99.90;;;20.24;39.50;96119.56;10475471;28;1826;-72
2022/07/10 15:16:42;;;;;;;;;;;21.40;99.90;;;20.09;39.24;96127.47;10468601;28;2188;-73
2022/07/10 15:21:45;;;;;;;;;;;21.40;99.90;;;20.38;39.12;96119.34;10471734;28;1859;-75
2022/07/10 15:26:49;;;;;;;;;;;21.30;99.90;;;20.44;38.36;96118.03;10469844;28;1910;-72
2022/07/10 15:31:52;;;;;;;;;;;21.40;99.90;;;20.19;38.72;96111.56;10469952;28;1598;-73
2022/07/10 15:37:00;;;;;;;;;;;21.50;99.90;;;20.41;38.30;96121.41;10471725;28;1813;-73
2022/07/10 15:42:04;;;;;;;;;;;21.50;99.90;;;20.61;37.68;96119.91;10473852;28;1458;-72
2022/07/10 15:47:06;;;;;;;;;;;21.60;99.90;;;20.42;38.40;96114.84;10468344;28;1894;-74
2022/07/10 15:52:09;;;;;;;;;;;21.40;99.90;;;20.40;37.47;96116.28;10468195;28;1891;-75
2022/07/10 15:57:12;;;;;;;;;;;21.50;99.90;;;19.89;38.20;96118.88;10464360;28;1840;-74
2022/07/10 16:02:15;;;;;;;;;;;21.10;99.70;;;20.13;38.15;96118.31;10466479;28;1828;-74
2022/07/10 16:07:20;;;;;;;;;;;21.00;99.90;;;19.59;39.60;96119.88;10469171;28;1918;-76
2022/07/10 16:12:23;;;;;;;;;;;20.80;99.90;;;19.75;39.64;96114.72;10472086;28;1861;-74
2022/07/10 16:17:25;;;;;;;;;;;20.70;99.90;;;19.67;39.68;96121.81;10467480;28;1963;-74
2022/07/10 16:22:28;;;;;;;;;;;20.70;99.90;;;19.81;38.95;96124.34;10468071;28;1827;-74
2022/07/10 16:27:32;;;;;;;;;;;20.80;99.90;;;19.48;39.75;96126.78;10463325;28;2016;-70
2022/07/10 16:32:35;;;;;;;;;;;20.60;99.90;;;19.45;39.97;96120.03;10478847;28;1851;-72
2022/07/10 16:37:39;;;;;;;;;;;20.60;99.90;;;18.97;41.31;96114.72;10462282;28;1907;-69
2022/07/10 16:42:42;;;;;;;;;;;20.20;99.90;;;18.88;41.52;96112.78;10462878;28;1837;-71
2022/07/10 16:47:46;;;;;;;;;;;20.00;99.90;;;18.52;41.93;96109.50;10463389;28;1918;-71
2022/07/10 16:52:49;;;;;;;;;;;19.70;99.90;;;18.45;41.83;96148.06;10461854;28;1843;-72
2022/07/10 16:57:52;;;;;;;;;;;19.50;99.90;;;18.33;42.44;96118.72;10460989;28;1851;-72
2022/07/10 17:02:55;;;;;;;;;;;19.40;99.90;;;18.56;42.22;96132.22;10465163;28;1884;-71
2022/07/10 17:07:58;;;;;;;;;;;19.40;99.90;;;18.17;42.37;96131.13;10457244;28;1914;-71
2022/07/10 17:13:01;;;;;;;;;;;19.20;99.90;;;18.48;42.34;96124.84;10463106;28;1849;-72
2022/07/10 17:18:05;;;;;;;;;;;19.30;99.90;;;18.42;42.73;96126.91;10463678;28;1858;-71
2022/07/10 17:23:09;;;;;;;;;;;19.40;99.90;;;18.19;43.21;96134.31;10461060;28;1915;-72
2022/07/10 17:28:12;;;;;;;;;;;19.30;99.90;;;17.97;43.58;96135.19;10462200;28;1985;-72
2022/07/10 17:33:16;;;;;;;;;;;19.00;99.90;;;17.85;44.03;96129.50;10471957;28;1805;-71
2022/07/10 17:38:20;;;;;;;;;;;18.90;99.90;;;17.63;44.16;96149.34;10468161;28;1904;-73
2022/07/10 17:43:23;;;;;;;;;;;18.70;99.90;;;17.68;44.29;96146.47;10466775;28;1811;-73
2022/07/10 17:48:26;;;;;;;;;;;18.60;99.90;;;17.69;44.50;96148.09;10473847;28;1989;-74
2022/07/10 17:53:29;;;;;;;;;;;18.60;99.90;;;17.46;44.85;96144.56;10478373;28;1901;-74
2022/07/10 17:58:32;;;;;;;;;;;18.60;99.90;;;17.45;44.50;96163.91;10471502;28;1828;-73
2022/07/10 18:03:35;;;;;;;;;;;18.40;99.90;;;17.23;45.32;96157.31;10471526;28;1785;-74
2022/07/10 18:08:39;;;;;;;;;;;18.30;99.90;;;17.07;46.21;96158.78;10488054;28;1979;-74
2022/07/10 18:13:43;;;;;;;;;;;18.10;99.90;;;17.10;45.49;96168.22;10477869;28;1817;-75
2022/07/10 18:18:47;;;;;;;;;;;18.10;99.90;;;16.98;46.05;96171.47;10475032;28;1841;-74
2022/07/10 18:23:49;;;;;;;;;;;18.00;99.90;;;16.82;46.91;96172.91;10475112;28;1824;-74
2022/07/10 18:28:52;;;;;;;;;;;17.90;99.90;;;16.70;46.98;96176.94;10473958;28;1914;-74
2022/07/10 18:39:16;;;;;;;;;;;17.60;99.90;;;16.52;47.85;96177.81;10474519;28;1855;-73
2022/07/10 18:44:20;;;;;;;;;;;17.60;99.90;;;16.37;48.19;96189.78;10487590;28;1968;-73
2022/07/10 18:49:30;;;;;;;;;;;17.50;99.90;;;16.27;47.84;96189.94;10499322;28;2007;-73
2022/07/10 18:54:33;;;;;;;;;;;17.30;99.90;;;16.14;48.08;96202.38;10472254;28;1863;-75
2022/07/10 18:59:37;;;;;;;;;;;17.20;99.90;;;16.03;48.31;96202.84;10491609;28;1870;-72
2022/07/10 19:04:40;;;;;;;;;;;17.10;99.90;;;15.88;48.45;96204.72;10470932;28;1709;-74
2022/07/10 19:09:43;;;;;;;;;;;17.40;99.90;;;15.80;49.04;96212.75;10472755;28;1982;-73
2022/07/10 19:14:47;;;;;;;;;;;16.80;99.90;;;15.69;49.34;96222.94;10465333;28;1825;-74
2022/07/10 19:19:50;;;;;;;;;;;16.80;99.90;;;15.50;50.00;96222.13;10473832;28;1847;-74
2022/07/10 19:24:53;;;;;;;;;;;16.60;99.90;;;15.38;50.91;96233.38;10469469;28;1852;-73
2022/07/10 19:29:56;;;;;;;;;;;16.50;99.90;;;15.24;52.23;96246.03;10473778;28;1914;-73
2022/07/10 19:34:59;;;;;;;;;;;16.30;99.90;;;15.12;51.87;96251.88;10469275;28;1871;-74
2022/07/10 19:40:03;;;;;;;;;;;16.20;99.90;;;15.02;52.61;96258.25;10470233;28;1785;-75
2022/07/10 19:45:06;;;;;;;;;;;16.10;99.90;;;14.87;52.94;96253.81;10468962;28;2089;-72
2022/07/10 19:50:09;;;;;;;;;;;16.00;99.90;;;14.78;53.24;96263.66;10468861;28;1961;-72
2022/07/10 19:55:12;;;;;;;;;;;15.90;99.90;;;14.63;53.82;96254.91;10464340;28;1979;-73
2022/07/10 20:00:15;;;;;;;;;;;15.80;99.90;;;14.55;54.45;96254.44;10467938;28;1876;-72
2022/07/10 20:05:19;;;;;;;;;;;15.70;99.90;;;14.39;55.38;96262.97;10462806;28;1898;-73
2022/07/10 20:10:22;;;;;;;;;;;15.70;99.90;;;14.28;56.21;96270.38;10467258;28;1989;-72
2022/07/10 20:15:25;;;;;;;;;;;15.60;99.90;;;14.18;56.75;96275.88;10482671;28;1953;-72
2022/07/10 20:20:48;;;;;;;;;;;15.40;99.90;;;14.49;56.11;96274.53;10470355;28;1966;-71
2022/07/10 20:25:51;;;;;;;;;;;15.40;99.90;;;14.12;57.63;96272.41;10466665;28;1821;-72
2022/07/10 20:30:54;;;;;;;;;;;15.40;99.90;;;14.28;56.80;96271.19;10472764;28;1914;-73
2022/07/10 20:41:18;;;;;;;;;;;15.30;99.90;;;14.02;58.15;96275.19;10459402;28;2003;-72
2022/07/10 20:46:21;;;;;;;;;;;15.20;99.90;;;14.06;58.50;96274.38;10463911;28;1832;-72
2022/07/10 20:51:25;;;;;;;;;;;15.20;99.90;;;13.86;59.16;96274.50;10459328;28;1914;-72
2022/07/10 20:56:28;;;;;;;;;;;15.10;99.90;;;13.79;60.20;96274.03;10482758;28;1828;-72
2022/07/10 21:01:31;;;;;;;;;;;15.00;99.90;;;13.65;60.38;96278.44;10469956;28;1845;-72
2022/07/10 21:06:35;;;;;;;;;;;14.90;99.90;;;13.50;61.07;96280.16;10493076;28;1860;-73
2022/07/10 21:11:38;;;;;;;;;;;14.80;99.90;;;13.55;60.95;96273.94;10465980;28;1850;-72
2022/07/10 21:16:41;;;;;;;;;;;;;;;13.41;62.07;96279.13;10477266;28;1964;-73
2022/07/10 21:21:44;;;;;;;;;;;14.70;99.90;;;13.32;62.83;96282.69;10476063;28;1831;-73
2022/07/10 21:26:47;;;;;;;;;;;14.60;99.90;;;13.27;63.30;96283.53;10473974;28;2067;-72
2022/07/10 21:31:50;;;;;;;;;;;14.50;99.90;;;13.22;63.65;96280.84;10468598;28;1883;-72
2022/07/10 21:36:53;;;;;;;;;;;14.40;99.90;;;13.14;65.31;96284.09;10470943;28;1860;-71
2022/07/10 21:41:56;;;;;;;;;;;14.80;99.90;;;13.10;66.14;96278.44;10470063;28;1943;-72
2022/07/10 21:47:00;;;;;;;;;;;14.40;99.90;;;13.06;66.80;96271.19;10495748;28;1985;-73
2022/07/10 21:52:05;;;;;;;;;;;14.30;99.90;;;12.94;68.17;96279.59;10474503;28;1855;-73
2022/07/10 21:57:08;;;;;;;;;;;14.20;99.90;;;12.88;68.57;96284.22;10479226;28;1844;-73
2022/07/10 22:02:12;;;;;;;;;;;14.10;99.90;;;12.87;68.84;96285.31;10476487;28;1907;-72
2022/07/10 22:07:14;;;;;;;;;;;14.00;99.90;;;12.78;70.41;96281.53;10474323;28;1977;-71
2022/07/10 22:12:18;;;;;;;;;;;14.00;99.90;;;12.77;71.62;96279.94;10462605;28;1824;-72
2022/07/10 22:17:21;;;;;;;;;;;14.00;99.90;;;12.71;71.67;96286.41;10468122;28;1809;-71
2022/07/10 22:22:24;;;;;;;;;;;13.90;99.90;;;12.67;72.29;96285.38;10466225;28;1856;-71
2022/07/10 22:27:27;;;;;;;;;;;13.90;99.90;;;12.63;74.15;96276.19;10455391;28;1973;-71
2022/07/10 22:32:30;;;;;;;;;;;13.90;99.90;;;12.61;73.89;96281.06;10470452;28;2063;-71
2022/07/10 22:37:33;;;;;;;;;;;13.80;99.90;;;12.53;74.06;96278.91;10471134;28;1816;-72
2022/07/10 22:42:35;;;;;;;;;;;13.80;99.90;;;12.53;73.95;96271.63;10471507;28;1980;-72
2022/07/10 22:47:39;;;;;;;;;;;13.80;99.90;;;12.52;74.33;96271.91;10472107;28;1914;-72
2022/07/10 22:52:44;;;;;;;;;;;;;;;12.41;75.69;96274.66;10480199;28;1790;-72
2022/07/10 22:57:47;;;;;;;;;;;13.60;99.90;;;12.28;76.89;96269.81;10475479;28;1920;-71
2022/07/10 23:02:50;;;;;;;;;;;13.50;99.90;;;12.27;77.98;96273.56;10468535;28;1848;-72
2022/07/10 23:07:54;;;;;;;;;;;13.50;99.90;;;12.20;78.72;96270.34;10464652;28;2078;-72
2022/07/10 23:12:57;;;;;;;;;;;13.40;99.90;;;12.20;79.19;96273.03;10486167;28;1878;-72
2022/07/10 23:18:00;;;;;;;;;;;13.40;99.90;;;12.22;79.45;96273.59;10465098;28;2015;-72
2022/07/10 23:23:04;;;;;;;;;;;13.40;99.90;;;12.15;80.81;96265.78;10464334;28;1817;-72
2022/07/10 23:28:07;;;;;;;;;;;13.40;99.90;;;12.08;81.19;96262.53;10473834;28;1906;-72
2022/07/10 23:33:10;;;;;;;;;;;13.30;99.90;;;12.06;82.59;96263.91;10480124;28;1784;-72